createdAt,value
2019-06-07T00:00:29.605Z,99.90
2019-06-07T00:02:39.545Z,99.90
2019-06-07T00:05:14.952Z,99.90
2019-06-07T00:07:42.097Z,99.90
2019-06-07T00:10:15.336Z,99.90
2019-06-07T00:12:40.610Z,99.90
2019-06-07T00:15:11.706Z,99.90
2019-06-07T00:17:39.715Z,99.90
2019-06-07T00:20:09.371Z,99.90
2019-06-07T00:22:38.211Z,99.90
2019-06-07T00:25:10.005Z,99.90
2019-06-07T00:27:37.108Z,99.90
2019-06-07T00:30:33.801Z,99.90
2019-06-07T00:32:37.845Z,99.90
2019-06-07T00:35:09.201Z,99.90
2019-06-07T00:37:37.752Z,99.90
2019-06-07T00:40:18.623Z,99.90
2019-06-07T00:42:36.287Z,99.90
2019-06-07T00:45:06.435Z,99.90
2019-06-07T00:47:34.841Z,99.90
2019-06-07T00:50:03.963Z,99.90
2019-06-07T00:55:02.632Z,99.90
2019-06-07T00:57:30.989Z,99.90
2019-06-07T00:59:59.466Z,99.90
2019-06-07T01:02:31.273Z,99.90
2019-06-07T01:04:57.956Z,99.90
2019-06-07T01:07:26.297Z,99.90
2019-06-07T01:09:54.718Z,99.90
2019-06-07T01:12:24.596Z,99.90
2019-06-07T01:14:53.161Z,99.90
2019-06-07T01:17:39.839Z,99.90
2019-06-07T01:19:56.530Z,99.90
2019-06-07T01:22:29.071Z,99.90
2019-06-07T01:24:54.996Z,99.90
2019-06-07T01:27:25.448Z,99.90
2019-06-07T01:29:53.442Z,99.90
2019-06-07T01:32:24.689Z,99.90
2019-06-07T01:34:51.955Z,99.90
2019-06-07T01:37:25.042Z,99.90
2019-06-07T01:39:50.421Z,99.90
2019-06-07T01:42:20.431Z,99.90
2019-06-07T01:44:48.876Z,99.90
2019-06-07T01:47:17.864Z,99.90
2019-06-07T01:49:46.873Z,99.90
2019-06-07T01:52:16.474Z,99.90
2019-06-07T01:54:58.455Z,99.90
2019-06-07T01:57:31.071Z,99.90
2019-06-07T01:59:45.431Z,99.90
2019-06-07T02:02:13.849Z,99.90
2019-06-07T02:04:42.272Z,99.90
2019-06-07T02:07:10.659Z,99.90
2019-06-07T02:09:39.082Z,99.90
2019-06-07T02:12:25.218Z,99.90
2019-06-07T02:14:37.688Z,99.90
2019-06-07T02:17:06.108Z,99.90
2019-06-07T02:19:34.497Z,99.90
2019-06-07T02:22:02.964Z,99.90
2019-06-07T02:24:35.301Z,99.90
2019-06-07T02:27:01.402Z,99.90
2019-06-07T02:29:32.930Z,99.90
2019-06-07T02:31:59.852Z,99.90
2019-06-07T02:34:35.251Z,99.90
2019-06-07T02:36:58.303Z,99.90
2019-06-07T02:39:28.844Z,99.90
2019-06-07T02:41:56.948Z,99.90
2019-06-07T02:44:28.587Z,99.90
2019-06-07T02:46:55.398Z,99.90
2019-06-07T02:49:25.180Z,99.90
2019-06-07T02:51:53.932Z,99.90
2019-06-07T02:54:23.970Z,99.90
2019-06-07T02:56:58.818Z,99.90
2019-06-07T02:59:52.677Z,99.90
2019-06-07T03:01:52.573Z,99.90
2019-06-07T03:04:21.069Z,99.90
2019-06-07T03:06:50.143Z,99.90
2019-06-07T03:09:18.885Z,99.90
2019-06-07T03:11:47.697Z,99.90
2019-06-07T03:14:16.644Z,99.90
2019-06-07T03:16:46.690Z,99.90
2019-06-07T03:19:19.375Z,99.90
2019-06-07T03:21:47.755Z,99.90
2019-06-07T03:24:16.232Z,99.90
2019-06-07T03:27:31.814Z,99.90
2019-06-07T03:29:14.761Z,99.90
2019-06-07T03:31:47.534Z,99.90
2019-06-07T03:34:13.211Z,99.90
2019-06-07T03:36:41.616Z,99.90
2019-06-07T03:39:10.027Z,99.90
2019-06-07T03:41:50.177Z,99.90
2019-06-07T03:44:08.487Z,99.90
2019-06-07T03:46:38.994Z,99.90
2019-06-07T03:49:06.957Z,99.90
2019-06-07T03:51:39.276Z,99.90
2019-06-07T03:54:05.504Z,99.90
2019-06-07T03:56:36.032Z,99.90
2019-06-07T03:59:04.007Z,99.90
2019-06-07T04:01:34.733Z,99.90
2019-06-07T04:04:02.472Z,99.90
2019-06-07T04:06:32.578Z,99.90
2019-06-07T04:09:01.029Z,99.90
2019-06-07T04:11:30.071Z,99.90
2019-06-07T04:13:58.691Z,99.90
2019-06-07T04:16:28.836Z,99.90
2019-06-07T04:18:57.161Z,99.90
2019-06-07T04:21:25.603Z,99.90
2019-06-07T04:23:54.005Z,99.90
2019-06-07T04:26:22.379Z,99.90
2019-06-07T04:31:22.178Z,99.90
2019-06-07T04:33:50.856Z,99.90
2019-06-07T04:36:38.915Z,99.90
2019-06-07T04:38:50.028Z,99.90
2019-06-07T04:41:19.067Z,99.90
2019-06-07T04:43:47.499Z,99.90
2019-06-07T04:46:15.981Z,99.90
2019-06-07T04:48:44.383Z,99.90
2019-06-07T04:51:14.579Z,99.90
2019-06-07T04:53:43.501Z,99.90
2019-06-07T04:56:12.005Z,99.90
2019-06-07T04:58:41.322Z,99.90
2019-06-07T05:01:26.376Z,99.90
2019-06-07T05:03:44.074Z,99.90
2019-06-07T05:06:10.098Z,99.90
2019-06-07T05:08:42.536Z,99.90
2019-06-07T05:11:08.545Z,99.90
2019-06-07T05:13:39.036Z,99.90
2019-06-07T05:16:07.012Z,99.90
2019-06-07T05:18:36.356Z,99.90
2019-06-07T05:21:05.468Z,99.90
2019-06-07T05:26:03.911Z,99.90
2019-06-07T05:28:32.658Z,99.90
2019-06-07T05:31:05.039Z,99.90
2019-06-07T05:33:31.810Z,99.90
2019-06-07T05:36:01.228Z,99.90
2019-06-07T05:38:31.015Z,99.90
2019-06-07T05:40:59.644Z,99.90
2019-06-07T05:43:29.200Z,99.90
2019-06-07T05:45:57.645Z,99.90
2019-06-07T05:48:26.876Z,99.90
2019-06-07T05:50:57.215Z,99.90
2019-06-07T05:53:25.527Z,99.90
2019-06-07T05:55:54.172Z,99.90
2019-06-07T05:58:24.125Z,99.90
2019-06-07T06:00:52.531Z,99.90
2019-06-07T06:03:20.938Z,99.90
2019-06-07T06:05:55.031Z,99.90
2019-06-07T06:08:19.428Z,99.90
2019-06-07T06:10:48.904Z,99.90
2019-06-07T06:13:17.560Z,99.90
2019-06-07T06:16:00.437Z,99.90
2019-06-07T06:18:16.012Z,99.90
2019-06-07T06:23:14.542Z,99.90
2019-06-07T06:25:50.984Z,99.90
2019-06-07T06:28:13.878Z,99.90
2019-06-07T06:30:45.682Z,99.90
2019-06-07T06:33:30.731Z,99.90
2019-06-07T06:35:47.507Z,99.90
2019-06-07T06:38:13.539Z,99.90
2019-06-07T06:40:45.122Z,99.90
2019-06-07T06:43:12.008Z,99.90
2019-06-07T06:45:40.419Z,99.90
2019-06-07T06:48:08.802Z,99.90
2019-06-07T06:50:38.611Z,99.90
2019-06-07T06:53:07.595Z,99.90
2019-06-07T06:55:36.070Z,99.90
2019-06-07T06:58:04.491Z,99.90
2019-06-07T07:01:04.845Z,99.90
2019-06-07T07:05:53.312Z,99.90
2019-06-07T07:08:19.764Z,99.90
2019-06-07T07:10:52.090Z,99.90
2019-06-07T07:13:18.298Z,99.90
2019-06-07T07:15:50.015Z,99.90
2019-06-07T07:18:16.716Z,99.90
2019-06-07T07:20:47.252Z,99.90
2019-06-07T07:23:15.156Z,99.90
2019-06-07T07:25:46.203Z,99.90
2019-06-07T07:28:13.680Z,99.90
2019-06-07T07:30:55.385Z,99.90
2019-06-07T07:33:22.537Z,99.90
2019-06-07T07:36:10.873Z,99.90
2019-06-07T07:38:20.981Z,99.90
2019-06-07T07:41:01.880Z,99.90
2019-06-07T07:43:19.423Z,99.90
2019-06-07T07:45:55.088Z,99.90
2019-06-07T07:48:18.578Z,99.90
2019-06-07T07:50:49.650Z,99.90
2019-06-07T07:53:17.224Z,99.90
2019-06-07T07:55:49.492Z,99.90
2019-06-07T07:58:15.637Z,99.90
2019-06-07T08:01:00.707Z,99.80
2019-06-07T08:03:14.152Z,99.10
2019-06-07T08:05:45.005Z,98.20
2019-06-07T08:08:12.597Z,98.10
2019-06-07T08:10:40.976Z,97.90
2019-06-07T08:13:27.256Z,98.00
2019-06-07T08:15:39.484Z,97.60
2019-06-07T08:18:07.984Z,97.00
2019-06-07T08:20:36.352Z,96.80
2019-06-07T08:23:04.996Z,96.70
2019-06-07T08:25:33.395Z,96.20
2019-06-07T08:28:01.766Z,95.60
2019-06-07T08:33:23.964Z,94.80
2019-06-07T08:36:03.584Z,94.80
2019-06-07T08:38:26.693Z,94.20
2019-06-07T08:40:30.539Z,93.90
2019-06-07T08:43:15.091Z,94.20
2019-06-07T08:45:29.168Z,93.70
2019-06-07T08:48:04.403Z,93.70
2019-06-07T08:50:27.650Z,93.60
2019-06-07T08:53:01.065Z,93.40
2019-06-07T08:55:26.168Z,92.60
2019-06-07T08:58:03.359Z,92.70
2019-06-07T09:02:57.456Z,93.00
2019-06-07T09:05:24.852Z,93.20
2019-06-07T09:08:13.367Z,93.20
2019-06-07T09:10:23.328Z,93.30
2019-06-07T09:12:54.419Z,92.80
2019-06-07T09:15:24.077Z,92.40
2019-06-07T09:20:36.364Z,92.10
2019-06-07T09:22:52.070Z,92.20
2019-06-07T09:25:21.668Z,92.10
2019-06-07T09:27:50.414Z,91.60
2019-06-07T09:30:22.073Z,91.50
2019-06-07T09:32:50.458Z,91.50
2019-06-07T09:35:18.861Z,91.30
2019-06-07T09:38:07.699Z,91.60
2019-06-07T09:40:27.326Z,91.70
2019-06-07T09:43:38.255Z,91.90
2019-06-07T09:45:20.639Z,92.00
2019-06-07T09:47:49.017Z,92.40
2019-06-07T09:50:17.396Z,92.30
2019-06-07T09:52:58.071Z,92.30
2019-06-07T09:55:24.221Z,92.40
2019-06-07T09:57:46.065Z,92.50
2019-06-07T10:00:39.289Z,92.40
2019-06-07T10:02:44.500Z,92.50
2019-06-07T10:05:14.309Z,92.30
2019-06-07T10:08:00.112Z,92.30
2019-06-07T10:12:43.107Z,92.30
2019-06-07T10:15:11.484Z,92.00
2019-06-07T10:17:39.958Z,91.90
2019-06-07T10:20:09.744Z,91.20
2019-06-07T10:22:38.257Z,90.50
2019-06-07T10:25:08.329Z,90.40
2019-06-07T10:27:36.707Z,90.40
2019-06-07T10:30:08.406Z,90.30
2019-06-07T10:32:36.841Z,90.00
2019-06-07T10:35:07.672Z,90.20
2019-06-07T10:37:36.415Z,90.00
2019-06-07T10:40:09.264Z,88.90
2019-06-07T10:42:37.864Z,88.70
2019-06-07T10:45:08.346Z,88.70
2019-06-07T10:47:36.932Z,88.90
2019-06-07T10:50:05.965Z,88.10
2019-06-07T10:52:34.497Z,87.00
2019-06-07T10:55:04.468Z,85.50
2019-06-07T10:57:32.958Z,86.80
2019-06-07T11:00:03.333Z,87.40
2019-06-07T11:02:31.577Z,86.70
2019-06-07T11:04:59.951Z,85.00
2019-06-07T11:07:28.354Z,83.60
2019-06-07T11:10:07.438Z,83.10
2019-06-07T11:12:26.856Z,82.90
2019-06-07T11:14:55.249Z,82.30
2019-06-07T11:17:23.687Z,80.80
2019-06-07T11:19:52.120Z,80.50
2019-06-07T11:22:20.537Z,79.80
2019-06-07T11:24:49.080Z,78.80
2019-06-07T11:27:18.969Z,77.80
2019-06-07T11:29:47.525Z,77.20
2019-06-07T11:32:15.921Z,77.00
2019-06-07T11:34:44.317Z,76.40
2019-06-07T11:37:13.793Z,76.20
2019-06-07T11:39:42.754Z,75.40
2019-06-07T11:42:12.072Z,74.90
2019-06-07T11:44:55.815Z,73.70
2019-06-07T11:47:10.613Z,74.30
2019-06-07T11:49:39.008Z,74.30
2019-06-07T11:52:07.401Z,73.40
2019-06-07T11:54:35.828Z,73.50
2019-06-07T11:57:04.556Z,73.70
2019-06-07T11:59:32.998Z,74.00
2019-06-07T12:02:01.494Z,74.20
2019-06-07T12:04:34.939Z,73.30
2019-06-07T12:07:00.158Z,73.00
2019-06-07T12:09:28.703Z,72.40
2019-06-07T12:11:57.099Z,71.80
2019-06-07T12:14:25.481Z,72.10
2019-06-07T12:16:53.897Z,72.80
2019-06-07T12:19:22.305Z,72.60
2019-06-07T12:21:50.712Z,71.50
2019-06-07T12:24:19.802Z,71.50
2019-06-07T12:26:49.150Z,70.30
2019-06-07T12:29:19.112Z,70.20
2019-06-07T12:31:50.140Z,70.90
2019-06-07T12:34:19.511Z,71.40
2019-06-07T12:36:47.955Z,69.70
2019-06-07T12:39:16.346Z,69.10
2019-06-07T12:41:44.773Z,69.30
2019-06-07T12:44:14.513Z,68.70
2019-06-07T12:46:43.061Z,67.30
2019-06-07T12:49:12.869Z,66.80
2019-06-07T12:51:41.475Z,66.40
2019-06-07T12:54:09.838Z,65.80
2019-06-07T12:56:38.251Z,63.50
2019-06-07T12:59:06.658Z,63.40
2019-06-07T13:01:35.034Z,64.20
2019-06-07T13:04:03.455Z,65.50
2019-06-07T13:06:31.844Z,66.30
2019-06-07T13:09:00.264Z,67.60
2019-06-07T13:11:31.617Z,68.60
2019-06-07T13:13:58.722Z,70.90
2019-06-07T13:16:28.409Z,71.60
2019-06-07T13:18:57.017Z,73.20
2019-06-07T13:21:25.410Z,74.50
2019-06-07T13:23:53.832Z,75.00
2019-06-07T13:26:23.072Z,75.40
2019-06-07T13:28:51.838Z,75.70
2019-06-07T13:31:21.063Z,76.10
2019-06-07T13:33:49.703Z,76.60
2019-06-07T13:36:18.169Z,77.40
2019-06-07T13:38:46.618Z,78.10
2019-06-07T13:41:30.211Z,78.70
2019-06-07T13:43:45.103Z,80.30
2019-06-07T13:46:13.509Z,81.60
2019-06-07T13:48:41.889Z,82.80
2019-06-07T13:51:10.289Z,85.80
2019-06-07T13:53:38.693Z,89.20
2019-06-07T13:56:07.100Z,91.10
2019-06-07T13:58:35.524Z,93.40
2019-06-07T14:01:03.890Z,95.40
2019-06-07T14:03:34.047Z,97.20
2019-06-07T14:06:02.331Z,98.90
2019-06-07T14:08:30.770Z,99.50
2019-06-07T14:10:59.170Z,99.90
2019-06-07T14:13:28.099Z,99.90
2019-06-07T14:15:56.571Z,99.90
2019-06-07T14:18:26.330Z,99.90
2019-06-07T14:20:54.867Z,99.90
2019-06-07T14:23:39.063Z,99.90
2019-06-07T14:25:53.294Z,99.90
2019-06-07T14:28:32.241Z,99.90
2019-06-07T14:30:59.166Z,99.90
2019-06-07T14:33:28.748Z,99.90
2019-06-07T14:35:57.644Z,99.90
2019-06-07T14:38:27.280Z,99.90
2019-06-07T14:40:55.835Z,99.90
2019-06-07T14:43:25.112Z,99.90
2019-06-07T14:45:53.779Z,99.90
2019-06-07T14:48:22.222Z,99.90
2019-06-07T14:50:50.668Z,99.90
2019-06-07T14:53:19.255Z,99.90
2019-06-07T14:55:47.675Z,99.90
2019-06-07T14:58:16.075Z,99.90
2019-06-07T15:00:44.973Z,99.90
2019-06-07T15:03:13.383Z,99.90
2019-06-07T15:05:41.785Z,99.90
2019-06-07T15:08:10.339Z,99.90
2019-06-07T15:10:39.273Z,99.90
2019-06-07T15:13:07.834Z,99.90
2019-06-07T15:15:36.241Z,99.90
2019-06-07T15:18:04.620Z,99.90
2019-06-07T15:20:34.083Z,99.90
2019-06-07T15:23:02.628Z,99.90
2019-06-07T15:25:31.216Z,99.90
2019-06-07T15:27:59.686Z,99.90
2019-06-07T15:30:29.486Z,99.90
2019-06-07T15:32:59.755Z,99.90
2019-06-07T15:35:28.161Z,99.90
2019-06-07T15:37:56.549Z,99.90
2019-06-07T15:40:25.057Z,99.90
2019-06-07T15:42:53.499Z,99.90
2019-06-07T15:45:21.832Z,99.90
2019-06-07T15:47:50.473Z,99.90
2019-06-07T15:50:18.864Z,99.90
2019-06-07T15:52:47.303Z,99.90
2019-06-07T15:55:15.705Z,99.90
2019-06-07T15:57:44.126Z,99.90
2019-06-07T16:00:16.577Z,99.90
2019-06-07T16:02:44.940Z,99.90
2019-06-07T16:05:13.419Z,99.90
2019-06-07T16:07:42.867Z,99.90
2019-06-07T16:10:12.021Z,99.90
2019-06-07T16:12:42.088Z,99.90
2019-06-07T16:15:11.231Z,99.90
2019-06-07T16:17:39.654Z,99.90
2019-06-07T16:20:08.085Z,99.90
2019-06-07T16:22:37.602Z,99.90
2019-06-07T16:25:07.471Z,99.90
2019-06-07T16:27:36.744Z,99.90
2019-06-07T16:30:10.105Z,99.90
2019-06-07T16:32:39.357Z,99.90
2019-06-07T16:35:08.341Z,99.90
2019-06-07T16:37:38.190Z,99.90
2019-06-07T16:40:13.906Z,99.90
2019-06-07T16:42:42.892Z,99.90
2019-06-07T16:45:11.731Z,99.90
2019-06-07T16:47:42.476Z,99.90
2019-06-07T16:50:10.851Z,99.90
2019-06-07T16:52:39.282Z,99.90
2019-06-07T16:55:07.703Z,99.90
2019-06-07T16:57:36.686Z,99.90
2019-06-07T17:00:13.318Z,99.90
2019-06-07T17:02:42.287Z,99.90
2019-06-07T17:05:10.814Z,99.90
2019-06-07T17:07:40.314Z,99.90
2019-06-07T17:10:09.294Z,99.90
2019-06-07T17:12:38.526Z,99.90
2019-06-07T17:15:07.951Z,99.90
2019-06-07T17:17:36.362Z,99.90
2019-06-07T17:20:06.490Z,99.90
2019-06-07T17:22:34.921Z,99.90
2019-06-07T17:25:04.190Z,99.90
2019-06-07T17:27:32.587Z,99.90
2019-06-07T17:30:01.096Z,99.90
2019-06-07T17:32:29.548Z,99.90
2019-06-07T17:34:57.959Z,99.90
2019-06-07T17:37:26.333Z,99.90
2019-06-07T17:39:54.742Z,99.90
2019-06-07T17:42:23.141Z,99.90
2019-06-07T17:44:51.625Z,99.90
2019-06-07T17:47:20.053Z,99.90
2019-06-07T17:49:49.679Z,99.90
2019-06-07T17:52:18.497Z,99.90
2019-06-07T17:54:48.006Z,99.90
2019-06-07T17:57:16.464Z,99.90
2019-06-07T17:59:44.841Z,99.90
2019-06-07T18:02:15.536Z,99.90
2019-06-07T18:04:43.400Z,99.90
2019-06-07T18:07:11.783Z,99.90
2019-06-07T18:09:40.207Z,99.90
2019-06-07T18:12:08.612Z,99.90
2019-06-07T18:14:37.006Z,99.90
2019-06-07T18:17:05.405Z,99.90
2019-06-07T18:19:33.809Z,99.90
2019-06-07T18:22:02.200Z,99.90
2019-06-07T18:24:30.596Z,99.90
2019-06-07T18:26:59.003Z,99.90
2019-06-07T18:29:27.391Z,99.90
2019-06-07T18:31:55.802Z,99.90
2019-06-07T18:34:24.300Z,99.90
2019-06-07T18:36:53.148Z,99.90
2019-06-07T18:39:21.504Z,99.90
2019-06-07T18:41:51.778Z,99.90
2019-06-07T18:44:21.797Z,99.90
2019-06-07T18:46:50.187Z,99.90
2019-06-07T18:49:18.576Z,99.90
2019-06-07T18:51:49.670Z,99.90
2019-06-07T18:54:18.104Z,99.90
2019-06-07T18:56:46.788Z,99.90
2019-06-07T18:59:15.247Z,99.90
2019-06-07T19:01:43.675Z,99.90
2019-06-07T19:04:12.077Z,99.90
2019-06-07T19:06:40.485Z,99.90
2019-06-07T19:09:08.978Z,99.90
2019-06-07T19:11:37.861Z,99.90
2019-06-07T19:14:06.247Z,99.90
2019-06-07T19:16:34.675Z,99.90
2019-06-07T19:19:03.079Z,99.90
2019-06-07T19:21:32.468Z,99.90
2019-06-07T19:24:00.928Z,99.90
2019-06-07T19:26:29.338Z,99.90
2019-06-07T19:28:58.786Z,99.90
2019-06-07T19:31:27.291Z,99.90
2019-06-07T19:33:59.367Z,99.90
2019-06-07T19:36:28.115Z,99.90
2019-06-07T19:38:57.843Z,99.90
2019-06-07T19:41:26.468Z,99.90
2019-06-07T19:43:56.116Z,99.90
2019-06-07T19:46:24.696Z,99.90
2019-06-07T19:48:54.320Z,99.90
2019-06-07T19:51:22.903Z,99.90
2019-06-07T19:53:51.320Z,99.90
2019-06-07T19:56:19.726Z,99.90
2019-06-07T19:58:48.151Z,99.90
2019-06-07T20:01:16.589Z,99.90
2019-06-07T20:03:44.959Z,99.90
2019-06-07T20:06:13.367Z,99.90
2019-06-07T20:08:41.768Z,99.90
2019-06-07T20:11:10.572Z,99.90
2019-06-07T20:13:39.089Z,99.90
2019-06-07T20:16:07.508Z,99.90
2019-06-07T20:18:35.896Z,99.90
2019-06-07T20:21:04.962Z,99.90
2019-06-07T20:23:33.515Z,99.90
2019-06-07T20:26:02.503Z,99.90
2019-06-07T20:28:30.980Z,99.90
2019-06-07T20:30:59.739Z,99.90
2019-06-07T20:33:28.151Z,99.90
2019-06-07T20:35:56.645Z,99.90
2019-06-07T20:38:25.052Z,99.90
2019-06-07T20:40:53.457Z,99.90
2019-06-07T20:43:21.885Z,99.90
2019-06-07T20:45:50.287Z,99.90
2019-06-07T20:48:18.697Z,99.90
2019-06-07T20:50:47.358Z,99.90
2019-06-07T20:53:15.773Z,99.90
2019-06-07T20:55:44.187Z,99.90
2019-06-07T20:58:12.587Z,99.90
2019-06-07T21:00:40.996Z,99.90
2019-06-07T21:03:09.715Z,99.90
2019-06-07T21:05:38.213Z,99.90
2019-06-07T21:08:10.669Z,99.90
2019-06-07T21:10:36.652Z,99.90
2019-06-07T21:13:07.999Z,99.90
2019-06-07T21:15:48.465Z,99.90
2019-06-07T21:18:12.053Z,99.90
2019-06-07T21:20:36.724Z,99.90
2019-06-07T21:23:05.123Z,99.90
2019-06-07T21:25:33.529Z,99.90
2019-06-07T21:28:03.028Z,99.90
2019-06-07T21:30:31.565Z,99.90
2019-06-07T21:33:01.258Z,99.90
2019-06-07T21:35:29.735Z,99.90
2019-06-07T21:37:58.157Z,99.90
2019-06-07T21:40:26.569Z,99.90
2019-06-07T21:42:54.976Z,99.90
2019-06-07T21:45:23.425Z,99.90
2019-06-07T21:47:51.875Z,99.90
2019-06-07T21:50:20.393Z,99.90
2019-06-07T21:52:48.826Z,99.90
2019-06-07T21:55:17.216Z,99.90
2019-06-07T21:57:45.634Z,99.90
2019-06-07T22:00:18.900Z,99.90
2019-06-07T22:02:47.281Z,99.90
2019-06-07T22:05:15.770Z,99.90
2019-06-07T22:07:44.173Z,99.90
2019-06-07T22:10:12.667Z,99.90
2019-06-07T22:12:41.041Z,99.90
2019-06-07T22:15:24.038Z,99.90
2019-06-07T22:17:39.756Z,99.90
2019-06-07T22:20:10.806Z,99.90
2019-06-07T22:22:39.430Z,99.90
2019-06-07T22:25:09.218Z,99.90
2019-06-07T22:27:37.802Z,99.90
2019-06-07T22:30:06.738Z,99.90
2019-06-07T22:32:35.164Z,99.90
2019-06-07T22:35:04.803Z,99.90
2019-06-07T22:37:33.207Z,99.90
2019-06-07T22:40:01.702Z,99.90
2019-06-07T22:42:30.528Z,99.90
2019-06-07T22:44:59.450Z,99.90
2019-06-07T22:47:27.905Z,99.90
2019-06-07T22:49:59.149Z,99.90
2019-06-07T22:52:27.557Z,99.90
2019-06-07T22:54:55.982Z,99.90
2019-06-07T22:57:26.051Z,99.90
2019-06-07T22:59:54.481Z,99.90
2019-06-07T23:02:22.875Z,99.90
2019-06-07T23:04:51.277Z,99.90
2019-06-07T23:07:19.690Z,99.90
2019-06-07T23:09:48.124Z,99.90
2019-06-07T23:12:17.575Z,99.90
2019-06-07T23:14:46.209Z,99.90
2019-06-07T23:17:15.750Z,99.90
2019-06-07T23:19:44.334Z,99.90
2019-06-07T23:22:13.780Z,99.90
2019-06-07T23:24:42.210Z,99.90
2019-06-07T23:27:11.205Z,99.90
2019-06-07T23:29:40.779Z,99.90
2019-06-07T23:32:10.475Z,99.90
2019-06-07T23:34:39.716Z,99.90
2019-06-07T23:37:08.097Z,99.90
2019-06-07T23:39:36.518Z,99.90
2019-06-07T23:42:04.920Z,99.90
2019-06-07T23:44:33.343Z,99.90
2019-06-07T23:47:10.837Z,99.90
2019-06-07T23:49:31.830Z,99.90
2019-06-07T23:52:00.231Z,99.90
2019-06-07T23:54:28.631Z,99.90
2019-06-07T23:56:57.040Z,99.90
2019-06-07T23:59:25.484Z,99.90
